createdAt,value
2023-04-13T00:00:12.626Z,12.18
2023-04-13T00:02:42.314Z,14.63
2023-04-13T00:05:10.323Z,15.18
2023-04-13T00:07:38.973Z,18.55
2023-04-13T00:10:10.043Z,10.52
2023-04-13T00:12:37.668Z,10.98
2023-04-13T00:15:05.802Z,9.45
2023-04-13T00:17:34.665Z,11.75
2023-04-13T00:20:08.259Z,11.13
2023-04-13T00:22:37.057Z,12.27
2023-04-13T00:25:04.106Z,13.27
2023-04-13T00:27:30.910Z,13.80
2023-04-13T00:30:00.484Z,11.98
2023-04-13T00:32:27.592Z,13.68
2023-04-13T00:34:54.436Z,11.23
2023-04-13T00:37:23.982Z,12.05
2023-04-13T00:39:52.087Z,10.73
2023-04-13T00:42:20.634Z,10.40
2023-04-13T00:44:47.605Z,11.60
2023-04-13T00:47:18.288Z,12.15
2023-04-13T00:49:45.517Z,10.10
2023-04-13T00:52:12.441Z,13.60
2023-04-13T00:54:40.814Z,9.77
2023-04-13T00:57:07.696Z,10.68
2023-04-13T00:59:34.524Z,9.75
2023-04-13T01:02:05.516Z,7.78
2023-04-13T01:04:33.613Z,10.18
2023-04-13T01:07:26.649Z,9.48
2023-04-13T01:10:01.914Z,11.65
2023-04-13T01:12:35.781Z,11.05
2023-04-13T01:15:06.271Z,8.75
2023-04-13T01:17:34.018Z,9.80
2023-04-13T01:20:12.037Z,9.63
2023-04-13T01:22:42.044Z,10.38
2023-04-13T01:25:27.868Z,9.63
2023-04-13T01:28:01.639Z,9.13
2023-04-13T01:30:28.827Z,9.30
2023-04-13T01:32:55.824Z,8.48
2023-04-13T01:35:22.880Z,10.25
2023-04-13T01:37:53.002Z,7.32
2023-04-13T01:40:21.594Z,3.67
2023-04-13T01:42:48.327Z,6.10
2023-04-13T01:45:36.284Z,4.22
2023-04-13T01:48:07.626Z,4.18
2023-04-13T01:50:36.157Z,8.02
2023-04-13T01:53:08.210Z,5.05
2023-04-13T01:55:44.231Z,3.50
2023-04-13T01:58:13.252Z,3.67
2023-04-13T02:00:41.151Z,5.05
2023-04-13T02:03:08.869Z,5.55
2023-04-13T02:05:37.061Z,6.07
2023-04-13T02:08:08.031Z,4.30
2023-04-13T02:10:35.946Z,5.30
2023-04-13T02:13:04.112Z,4.68
2023-04-13T02:15:38.114Z,5.50
2023-04-13T02:18:05.413Z,4.93
2023-04-13T02:20:40.456Z,6.07
2023-04-13T02:23:10.861Z,6.53
2023-04-13T02:25:37.896Z,5.80
2023-04-13T02:28:05.707Z,5.10
2023-04-13T02:30:32.724Z,8.75
2023-04-13T02:33:00.695Z,5.55
2023-04-13T02:35:28.957Z,10.15
2023-04-13T02:37:56.098Z,10.45
2023-04-13T02:40:23.656Z,8.68
2023-04-13T02:42:50.430Z,12.45
2023-04-13T02:45:18.350Z,11.15
2023-04-13T02:47:45.808Z,10.77
2023-04-13T02:50:13.604Z,9.90
2023-04-13T02:52:40.377Z,9.40
2023-04-13T02:55:08.173Z,11.80
2023-04-13T02:57:37.569Z,10.63
2023-04-13T03:00:13.408Z,10.90
2023-04-13T03:02:42.677Z,13.40
2023-04-13T03:05:09.902Z,10.85
2023-04-13T03:07:37.104Z,12.95
2023-04-13T03:10:05.559Z,13.43
2023-04-13T03:12:33.097Z,14.45
2023-04-13T03:15:08.570Z,13.10
2023-04-13T03:17:35.958Z,14.10
2023-04-13T03:20:09.225Z,16.42
2023-04-13T03:22:36.348Z,12.38
2023-04-13T03:25:03.071Z,11.85
2023-04-13T03:27:30.295Z,11.85
2023-04-13T03:29:57.030Z,14.43
2023-04-13T03:32:23.938Z,11.55
2023-04-13T03:34:51.878Z,11.52
2023-04-13T03:37:18.704Z,9.75
2023-04-13T03:39:46.670Z,10.18
2023-04-13T03:42:13.365Z,11.10
2023-04-13T03:44:43.561Z,11.50
2023-04-13T03:47:10.423Z,10.90
2023-04-13T03:49:37.410Z,14.88
2023-04-13T03:52:04.992Z,11.10
2023-04-13T03:54:32.064Z,10.70
2023-04-13T03:57:00.602Z,11.05
2023-04-13T03:59:27.834Z,12.30
2023-04-13T04:01:58.336Z,11.23
2023-04-13T04:04:25.455Z,11.10
2023-04-13T04:06:52.380Z,9.20
2023-04-13T04:09:21.412Z,9.30
2023-04-13T04:11:49.280Z,8.48
2023-04-13T04:14:16.313Z,7.75
2023-04-13T04:16:43.226Z,8.27
2023-04-13T04:19:10.085Z,6.50
2023-04-13T04:21:48.578Z,7.18
2023-04-13T04:24:23.729Z,6.43
2023-04-13T04:26:58.186Z,6.60
2023-04-13T04:29:34.611Z,6.55
2023-04-13T04:32:06.392Z,5.97
2023-04-13T04:34:33.739Z,5.38
2023-04-13T04:37:04.076Z,5.82
2023-04-13T04:39:44.542Z,5.22
2023-04-13T04:42:13.004Z,6.90
2023-04-13T04:44:40.648Z,5.22
2023-04-13T04:47:07.670Z,5.82
2023-04-13T04:49:35.123Z,5.38
2023-04-13T04:52:06.291Z,4.95
2023-04-13T04:54:34.871Z,5.65
2023-04-13T04:59:46.809Z,4.70
2023-04-13T05:02:15.251Z,4.22
2023-04-13T05:04:42.726Z,5.20
2023-04-13T05:07:17.443Z,6.88
2023-04-13T05:09:44.726Z,3.45
2023-04-13T05:12:15.299Z,3.13
2023-04-13T05:14:44.365Z,4.55
2023-04-13T05:17:13.805Z,2.80
2023-04-13T05:27:53.497Z,3.80
2023-04-13T05:30:23.565Z,2.92
2023-04-13T05:32:52.047Z,3.03
2023-04-13T05:35:41.995Z,2.30
2023-04-13T05:38:14.728Z,3.85
2023-04-13T05:43:10.698Z,3.65
2023-04-13T05:45:39.785Z,2.22
2023-04-13T05:48:14.044Z,1.90
2023-04-13T05:50:40.893Z,1.67
2023-04-13T05:53:18.030Z,2.00
2023-04-13T05:55:46.179Z,1.65
2023-04-13T05:58:14.823Z,1.73
2023-04-13T06:03:27.973Z,3.10
2023-04-13T06:05:55.078Z,1.77
2023-04-13T06:08:26.375Z,2.92
2023-04-13T06:10:59.998Z,2.17
2023-04-13T06:13:31.226Z,2.63
2023-04-13T06:16:08.354Z,3.40
2023-04-13T06:18:38.090Z,2.67
2023-04-13T06:21:14.551Z,2.13
2023-04-13T06:23:48.310Z,5.75
2023-04-13T06:26:20.222Z,2.08
2023-04-13T06:28:48.065Z,6.03
2023-04-13T06:31:14.941Z,3.85
2023-04-13T06:33:46.238Z,6.82
2023-04-13T06:36:16.144Z,8.27
2023-04-13T06:38:44.281Z,5.40
2023-04-13T06:41:14.840Z,3.63
2023-04-13T06:43:43.499Z,2.58
2023-04-13T06:46:15.910Z,2.60
2023-04-13T06:51:12.813Z,1.38
2023-04-13T06:53:44.582Z,1.67
2023-04-13T06:56:17.514Z,1.35
2023-04-13T06:58:45.786Z,2.35
2023-04-13T07:01:15.909Z,2.05
2023-04-13T07:03:46.615Z,1.42
2023-04-13T07:06:14.124Z,3.00
2023-04-13T07:08:49.310Z,2.72
2023-04-13T07:22:07.769Z,1.52
2023-04-13T07:25:00.764Z,1.30
2023-04-13T07:27:34.487Z,2.03
2023-04-13T07:30:02.694Z,1.45
2023-04-13T07:32:31.847Z,1.92
2023-04-13T07:35:04.436Z,1.65
2023-04-13T07:37:33.886Z,3.35
2023-04-13T07:40:05.473Z,1.40
2023-04-13T07:42:33.071Z,1.52
2023-04-13T07:45:02.380Z,1.20
2023-04-13T07:50:21.734Z,1.02
2023-04-13T07:52:56.119Z,1.08
2023-04-13T07:55:26.907Z,1.10
2023-04-13T07:58:00.229Z,1.20
2023-04-13T08:00:36.090Z,1.08
2023-04-13T08:03:06.955Z,1.88
2023-04-13T08:05:37.331Z,1.67
2023-04-13T08:08:05.527Z,1.30
2023-04-13T08:10:42.806Z,0.93
2023-04-13T08:13:14.004Z,2.47
2023-04-13T08:15:46.558Z,3.00
2023-04-13T08:18:13.424Z,2.13
2023-04-13T08:20:42.468Z,1.90
2023-04-13T08:23:17.723Z,2.47
2023-04-13T08:25:47.264Z,1.50
2023-04-13T08:28:14.527Z,3.40
2023-04-13T08:30:47.426Z,1.77
2023-04-13T08:33:16.964Z,6.20
2023-04-13T08:35:47.359Z,4.22
2023-04-13T08:38:17.688Z,1.42
2023-04-13T08:40:55.250Z,1.42
2023-04-13T08:43:23.436Z,1.20
2023-04-13T08:45:52.608Z,1.92
2023-04-13T08:48:20.428Z,1.65
2023-04-13T08:50:48.969Z,1.60
2023-04-13T08:53:20.766Z,1.65
2023-04-13T08:55:53.358Z,3.28
2023-04-13T08:58:25.173Z,1.42
2023-04-13T09:00:56.406Z,1.30
2023-04-13T09:03:37.994Z,1.52
2023-04-13T09:06:16.211Z,1.75
2023-04-13T09:08:47.426Z,2.53
2023-04-13T09:16:44.860Z,1.55
2023-04-13T09:22:09.246Z,2.70
2023-04-13T09:24:53.348Z,1.52
2023-04-13T09:30:32.816Z,1.88
2023-04-13T09:33:15.116Z,2.50
2023-04-13T09:38:41.580Z,1.58
2023-04-13T09:43:52.736Z,2.55
2023-04-13T09:46:24.677Z,1.25
2023-04-13T09:49:03.287Z,1.42
2023-04-13T09:51:45.759Z,2.17
2023-04-13T09:54:29.070Z,1.60
2023-04-13T09:59:50.652Z,1.55
2023-04-13T10:02:22.628Z,1.48
2023-04-13T10:04:53.052Z,4.13
2023-04-13T10:07:33.414Z,2.90
2023-04-13T10:13:00.117Z,2.08
2023-04-13T10:15:59.203Z,1.35
2023-04-13T10:19:04.728Z,1.30
2023-04-13T10:21:47.533Z,1.43
2023-04-13T10:24:15.146Z,2.80
2023-04-13T10:26:56.315Z,2.35
2023-04-13T10:32:26.465Z,1.85
2023-04-13T10:37:44.322Z,1.92
2023-04-13T10:43:04.942Z,1.48
2023-04-13T10:45:39.846Z,1.67
2023-04-13T10:48:10.589Z,1.50
2023-04-13T10:50:50.386Z,1.98
2023-04-13T10:53:30.768Z,1.75
2023-04-13T11:04:25.813Z,1.35
2023-04-13T11:12:22.862Z,1.63
2023-04-13T11:26:58.646Z,1.23
2023-04-13T11:29:30.401Z,3.55
2023-04-13T11:34:53.553Z,1.42
2023-04-13T11:37:30.610Z,1.60
2023-04-13T11:45:31.450Z,4.32
2023-04-13T11:50:42.789Z,1.48
2023-04-13T11:56:17.969Z,1.48
2023-04-13T11:58:54.713Z,2.17
2023-04-13T12:04:25.107Z,1.70
2023-04-13T12:06:59.191Z,1.92
2023-04-13T12:09:54.528Z,2.15
2023-04-13T12:18:02.360Z,1.67
2023-04-13T12:20:45.668Z,2.00
2023-04-13T12:24:01.173Z,2.13
2023-04-13T12:27:16.265Z,1.10
2023-04-13T12:32:44.413Z,1.50
2023-04-13T12:35:13.685Z,1.40
2023-04-13T12:38:04.947Z,1.40
2023-04-13T12:40:51.724Z,2.58
2023-04-13T12:54:34.798Z,1.70
2023-04-13T13:05:26.846Z,1.20
2023-04-13T13:19:11.850Z,1.38
2023-04-13T13:21:45.642Z,1.45
2023-04-13T13:24:18.405Z,1.42
2023-04-13T13:27:14.104Z,1.95
2023-04-13T13:29:40.829Z,2.07
2023-04-13T13:32:09.336Z,1.60
2023-04-13T13:34:37.803Z,2.10
2023-04-13T13:37:07.022Z,1.95
2023-04-13T13:39:58.110Z,1.77
2023-04-13T13:42:30.552Z,1.98
2023-04-13T13:45:03.538Z,1.30
2023-04-13T13:47:30.647Z,3.67
2023-04-13T13:49:58.704Z,1.30
2023-04-13T13:52:26.774Z,2.35
2023-04-13T13:54:54.985Z,1.77
2023-04-13T13:57:27.649Z,2.28
2023-04-13T14:00:05.298Z,1.83
2023-04-13T14:02:32.371Z,1.77
2023-04-13T14:07:47.944Z,3.70
2023-04-13T14:10:18.211Z,1.50
2023-04-13T14:12:50.757Z,2.53
2023-04-13T14:15:24.614Z,1.52
2023-04-13T14:18:09.723Z,4.07
2023-04-13T14:20:45.392Z,1.50
2023-04-13T14:23:22.416Z,2.65
2023-04-13T14:25:52.292Z,2.03
2023-04-13T14:28:23.078Z,1.65
2023-04-13T14:30:53.148Z,2.33
2023-04-13T14:36:11.048Z,2.38
2023-04-13T14:38:40.430Z,3.25
2023-04-13T14:41:08.432Z,2.72
2023-04-13T14:43:37.034Z,4.82
2023-04-13T14:46:10.617Z,1.85
2023-04-13T14:51:33.982Z,1.70
2023-04-13T14:54:08.228Z,1.55
2023-04-13T14:56:39.334Z,1.30
2023-04-13T14:59:12.867Z,2.13
2023-04-13T15:01:50.464Z,1.65
2023-04-13T15:04:27.304Z,3.05
2023-04-13T15:07:01.693Z,1.42
2023-04-13T15:09:29.260Z,2.72
2023-04-13T15:11:57.675Z,4.55
2023-04-13T15:14:43.056Z,2.20
2023-04-13T15:17:14.917Z,2.33
2023-04-13T15:19:46.601Z,2.50
2023-04-13T15:22:18.278Z,2.78
2023-04-13T15:24:49.596Z,5.50
2023-04-13T15:27:17.616Z,4.80
2023-04-13T15:29:45.852Z,4.10
2023-04-13T15:32:17.779Z,1.92
2023-04-13T15:34:50.799Z,3.22
2023-04-13T15:37:20.128Z,2.60
2023-04-13T15:45:38.496Z,3.08
2023-04-13T15:48:21.178Z,2.15
2023-04-13T15:53:44.465Z,3.00
2023-04-13T15:56:20.712Z,3.83
2023-04-13T15:59:00.209Z,2.33
2023-04-13T16:01:44.494Z,4.03
2023-04-13T16:04:18.127Z,2.35
2023-04-13T16:09:47.671Z,3.47
2023-04-13T16:12:21.751Z,2.78
2023-04-13T16:15:04.974Z,2.00
2023-04-13T16:20:23.814Z,4.20
2023-04-13T16:23:20.327Z,3.42
2023-04-13T16:25:52.080Z,3.17
2023-04-13T16:28:31.587Z,2.40
2023-04-13T16:31:00.429Z,4.45
2023-04-13T16:33:53.160Z,6.40
2023-04-13T16:36:25.294Z,2.58
2023-04-13T16:38:57.133Z,3.07
2023-04-13T16:41:43.787Z,2.40
2023-04-13T16:49:53.641Z,4.18
2023-04-13T16:55:15.246Z,2.40
2023-04-13T16:57:43.607Z,2.42
2023-04-13T17:00:19.505Z,3.63
2023-04-13T17:02:50.326Z,3.70
2023-04-13T17:08:28.487Z,2.33
2023-04-13T17:10:56.971Z,4.32
2023-04-13T17:22:00.589Z,3.20
2023-04-13T17:24:33.010Z,4.38
2023-04-13T17:27:02.988Z,2.55
2023-04-13T17:32:32.832Z,2.65
2023-04-13T17:35:51.418Z,3.92
2023-04-13T17:38:37.037Z,4.32
2023-04-13T17:41:31.537Z,5.97
2023-04-13T17:44:05.135Z,3.72
2023-04-13T17:46:34.581Z,7.47
2023-04-13T17:49:02.124Z,3.20
2023-04-13T17:51:31.875Z,8.23
2023-04-13T17:54:02.587Z,3.33
2023-04-13T17:56:31.740Z,6.57
2023-04-13T17:58:59.459Z,7.93
2023-04-13T18:01:28.060Z,4.63
2023-04-13T18:03:56.196Z,4.32
2023-04-13T18:06:24.167Z,6.57
2023-04-13T18:08:56.234Z,4.22
2023-04-13T18:11:24.670Z,5.50
2023-04-13T18:13:53.276Z,5.88
2023-04-13T18:16:23.512Z,6.82
2023-04-13T18:18:54.248Z,3.00
2023-04-13T18:21:22.766Z,4.18
2023-04-13T18:23:52.530Z,4.30
2023-04-13T18:26:31.689Z,6.53
2023-04-13T18:29:08.255Z,3.67
2023-04-13T18:31:43.342Z,4.53
2023-04-13T18:34:15.517Z,5.50
2023-04-13T18:36:49.183Z,5.15
2023-04-13T18:39:16.813Z,4.70
2023-04-13T18:41:43.782Z,4.28
2023-04-13T18:44:11.538Z,3.70
2023-04-13T18:46:41.392Z,3.20
2023-04-13T18:49:11.426Z,4.70
2023-04-13T18:51:42.949Z,4.13
2023-04-13T18:54:11.241Z,4.03
2023-04-13T18:56:42.541Z,3.40
2023-04-13T18:59:18.886Z,4.07
2023-04-13T19:01:49.870Z,4.95
2023-04-13T19:04:20.439Z,4.85
2023-04-13T19:06:53.603Z,3.72
2023-04-13T21:52:11.374Z,7.40
2023-04-13T21:54:38.981Z,7.00
2023-04-13T21:57:05.826Z,7.45
2023-04-13T21:59:33.202Z,8.52
2023-04-13T22:02:00.113Z,8.38
2023-04-13T22:04:27.240Z,8.40
2023-04-13T22:06:54.105Z,7.88
2023-04-13T22:09:21.102Z,7.55
2023-04-13T22:11:48.923Z,8.70
2023-04-13T22:14:16.998Z,9.82
2023-04-13T22:16:43.764Z,10.00
2023-04-13T22:19:12.580Z,8.95
2023-04-13T22:21:39.340Z,9.50
2023-04-13T22:24:06.299Z,8.10
2023-04-13T22:26:33.002Z,9.13
2023-04-13T22:29:00.134Z,9.70
2023-04-13T22:31:28.329Z,8.35
2023-04-13T22:33:55.324Z,9.95
2023-04-13T22:36:22.410Z,10.52
2023-04-13T22:38:50.625Z,12.43
2023-04-13T22:41:17.708Z,9.30
2023-04-13T22:43:44.568Z,9.32
2023-04-13T22:46:11.338Z,9.40
2023-04-13T22:48:38.105Z,9.75
2023-04-13T22:51:05.183Z,8.48
2023-04-13T22:53:32.171Z,8.23
2023-04-13T22:56:01.066Z,7.15
2023-04-13T22:58:28.030Z,7.50
2023-04-13T23:00:54.924Z,9.30
2023-04-13T23:03:22.264Z,9.10
2023-04-13T23:05:50.060Z,9.05
2023-04-13T23:08:16.846Z,8.43
2023-04-13T23:10:46.867Z,8.98
2023-04-13T23:13:13.684Z,10.20
2023-04-13T23:15:40.489Z,12.68
2023-04-13T23:18:07.686Z,9.82
2023-04-13T23:20:34.903Z,10.07
2023-04-13T23:23:02.517Z,9.20
2023-04-13T23:25:30.765Z,8.63
2023-04-13T23:27:57.873Z,7.43
2023-04-13T23:30:24.703Z,6.88
2023-04-13T23:32:51.582Z,6.75
2023-04-13T23:35:18.362Z,7.93
2023-04-13T23:37:46.238Z,8.70
2023-04-13T23:40:13.136Z,6.22
2023-04-13T23:42:40.604Z,6.57
2023-04-13T23:45:08.143Z,5.97
2023-04-13T23:47:34.983Z,5.97
2023-04-13T23:50:02.773Z,6.72
2023-04-13T23:52:30.953Z,5.88
2023-04-13T23:54:58.737Z,6.10
2023-04-13T23:57:25.652Z,7.65
2023-04-13T23:59:57.237Z,5.75
